createdAt,value
2022-08-17T00:02:25.359Z,26.00
2022-08-17T00:04:56.216Z,23.85
2022-08-17T00:07:24.244Z,24.75
2022-08-17T00:09:52.818Z,25.08
2022-08-17T00:12:43.210Z,24.90
2022-08-17T00:15:08.278Z,23.65
2022-08-17T00:17:37.929Z,26.55
2022-08-17T00:20:04.868Z,24.02
2022-08-17T00:22:36.071Z,25.95
2022-08-17T00:25:15.147Z,25.50
2022-08-17T00:27:41.927Z,26.02
2022-08-17T00:30:11.606Z,25.38
2022-08-17T00:33:13.958Z,26.58
2022-08-17T00:35:35.594Z,23.92
2022-08-17T00:38:04.081Z,24.73
2022-08-17T00:40:40.685Z,24.75
2022-08-17T00:43:22.169Z,25.85
2022-08-17T00:45:49.548Z,24.05
2022-08-17T00:48:29.945Z,24.25
2022-08-17T00:51:04.764Z,22.65
2022-08-17T00:53:33.882Z,23.15
2022-08-17T00:56:03.039Z,23.23
2022-08-17T00:58:36.340Z,21.73
2022-08-17T01:01:07.467Z,22.77
2022-08-17T01:03:37.340Z,21.80
2022-08-17T01:06:06.611Z,20.95
2022-08-17T01:08:33.374Z,21.98
2022-08-17T01:11:02.415Z,23.77
2022-08-17T01:13:40.385Z,22.08
2022-08-17T01:16:17.824Z,23.33
2022-08-17T01:18:47.860Z,23.00
2022-08-17T01:21:39.267Z,22.35
2022-08-17T01:24:06.206Z,23.33
2022-08-17T01:26:34.436Z,20.88
2022-08-17T01:29:02.863Z,22.40
2022-08-17T01:31:34.806Z,22.10
2022-08-17T01:34:07.307Z,21.60
2022-08-17T01:36:33.797Z,22.30
2022-08-17T01:39:00.660Z,22.73
2022-08-17T01:41:28.185Z,22.60
2022-08-17T01:44:00.071Z,21.40
2022-08-17T01:46:33.331Z,22.23
2022-08-17T01:49:00.710Z,20.13
2022-08-17T01:51:32.535Z,21.15
2022-08-17T01:54:05.186Z,21.15
2022-08-17T01:56:33.867Z,20.38
2022-08-17T01:59:00.595Z,22.48
2022-08-17T02:01:31.115Z,20.55
2022-08-17T02:04:00.565Z,21.17
2022-08-17T02:06:31.401Z,22.05
2022-08-17T02:09:16.483Z,22.17
2022-08-17T02:11:45.315Z,22.40
2022-08-17T02:14:13.100Z,23.88
2022-08-17T02:16:40.961Z,27.40
2022-08-17T02:19:11.353Z,26.33
2022-08-17T02:21:39.105Z,26.02
2022-08-17T02:24:09.684Z,24.60
2022-08-17T02:26:39.466Z,23.83
2022-08-17T02:29:05.978Z,21.95
2022-08-17T02:31:32.807Z,21.35
2022-08-17T02:34:03.952Z,23.67
2022-08-17T02:36:34.071Z,23.25
2022-08-17T02:39:15.529Z,23.33
2022-08-17T02:41:41.939Z,23.35
2022-08-17T02:44:08.795Z,22.85
2022-08-17T02:46:39.290Z,24.85
2022-08-17T02:49:07.115Z,25.40
2022-08-17T02:51:35.178Z,19.95
2022-08-17T02:54:39.086Z,21.85
2022-08-17T02:56:48.356Z,22.70
2022-08-17T02:59:15.019Z,21.42
2022-08-17T03:01:42.104Z,20.52
2022-08-17T03:04:09.292Z,21.60
2022-08-17T03:06:35.830Z,20.05
2022-08-17T03:09:02.326Z,19.83
2022-08-17T03:11:28.721Z,18.00
2022-08-17T03:13:55.692Z,18.75
2022-08-17T03:16:22.060Z,18.65
2022-08-17T03:18:48.525Z,17.13
2022-08-17T03:21:14.903Z,14.00
2022-08-17T03:23:44.292Z,12.70
2022-08-17T03:26:12.383Z,14.13
2022-08-17T03:28:41.879Z,16.15
2022-08-17T03:31:08.513Z,20.70
2022-08-17T03:33:34.962Z,22.17
2022-08-17T03:36:01.553Z,18.58
2022-08-17T03:38:28.139Z,17.83
2022-08-17T03:40:56.290Z,17.00
2022-08-17T03:43:25.236Z,18.88
2022-08-17T03:46:10.824Z,21.08
2022-08-17T03:49:12.891Z,23.55
2022-08-17T03:52:02.750Z,22.15
2022-08-17T03:54:47.495Z,21.75
2022-08-17T03:57:14.266Z,22.88
2022-08-17T03:59:41.220Z,24.48
2022-08-17T04:02:11.436Z,19.02
2022-08-17T04:04:46.335Z,20.38
2022-08-17T04:07:12.767Z,19.67
2022-08-17T04:09:39.222Z,20.48
2022-08-17T04:12:10.256Z,18.55
2022-08-17T04:14:51.499Z,21.50
2022-08-17T04:17:46.919Z,22.15
2022-08-17T04:20:15.655Z,21.00
2022-08-17T04:23:09.407Z,19.85
2022-08-17T04:25:39.402Z,20.08
2022-08-17T04:28:09.445Z,21.88
2022-08-17T04:30:44.987Z,16.23
2022-08-17T04:33:20.891Z,17.88
2022-08-17T04:35:50.063Z,18.70
2022-08-17T04:38:18.871Z,15.43
2022-08-17T04:41:04.420Z,17.17
2022-08-17T04:43:33.108Z,14.50
2022-08-17T04:46:06.430Z,14.13
2022-08-17T04:48:37.644Z,14.07
2022-08-17T04:51:07.746Z,13.52
2022-08-17T04:53:34.354Z,13.52
2022-08-17T04:56:01.067Z,13.00
2022-08-17T04:58:28.095Z,12.15
2022-08-17T05:00:55.297Z,10.00
2022-08-17T05:03:21.757Z,11.68
2022-08-17T05:05:51.299Z,10.32
2022-08-17T05:08:19.438Z,9.30
2022-08-17T05:10:46.872Z,7.95
2022-08-17T05:13:19.729Z,7.82
2022-08-17T05:15:48.166Z,7.05
2022-08-17T05:18:18.192Z,7.13
2022-08-17T05:20:45.076Z,6.18
2022-08-17T05:23:14.969Z,6.28
2022-08-17T05:25:47.578Z,5.22
2022-08-17T05:28:16.177Z,5.72
2022-08-17T05:30:44.122Z,5.57
2022-08-17T05:33:16.534Z,5.95
2022-08-17T05:35:49.045Z,5.30
2022-08-17T05:38:18.908Z,5.32
2022-08-17T05:40:47.007Z,5.40
2022-08-17T05:43:17.290Z,5.70
2022-08-17T05:45:56.479Z,5.82
2022-08-17T05:48:35.281Z,6.00
2022-08-17T05:51:11.597Z,5.65
2022-08-17T05:53:57.838Z,5.93
2022-08-17T05:56:42.391Z,6.43
2022-08-17T05:59:35.751Z,6.47
2022-08-17T06:02:06.391Z,6.88
2022-08-17T06:05:03.747Z,7.03
2022-08-17T06:07:52.733Z,7.25
2022-08-17T06:10:43.948Z,8.18
2022-08-17T06:13:33.041Z,8.25
2022-08-17T06:16:33.891Z,8.50
2022-08-17T06:19:22.975Z,8.10
2022-08-17T06:21:53.915Z,7.22
2022-08-17T06:24:38.347Z,7.22
2022-08-17T06:27:11.998Z,7.70
2022-08-17T06:30:12.712Z,5.68
2022-08-17T06:32:43.193Z,6.55
2022-08-17T06:35:14.726Z,5.32
2022-08-17T06:40:37.536Z,5.75
2022-08-17T06:43:26.528Z,5.32
2022-08-17T06:46:08.314Z,5.03
2022-08-17T06:48:43.835Z,5.13
2022-08-17T06:51:20.970Z,5.25
2022-08-17T06:54:16.397Z,4.93
2022-08-17T06:56:56.109Z,5.15
2022-08-17T06:59:55.373Z,5.05
2022-08-17T07:03:02.682Z,5.32
2022-08-17T07:06:02.250Z,5.20
2022-08-17T07:08:51.211Z,6.18
2022-08-17T07:11:25.889Z,5.72
2022-08-17T07:14:18.899Z,5.93
2022-08-17T07:16:52.248Z,5.88
2022-08-17T07:19:23.338Z,6.45
2022-08-17T07:22:27.944Z,6.20
2022-08-17T07:25:04.370Z,6.55
2022-08-17T07:27:37.034Z,6.18
2022-08-17T07:30:10.910Z,7.03
2022-08-17T07:33:00.611Z,6.65
2022-08-17T07:35:37.863Z,7.68
2022-08-17T07:38:25.349Z,8.60
2022-08-17T07:41:02.498Z,8.40
2022-08-17T07:43:39.163Z,9.05
2022-08-17T07:46:39.527Z,9.13
2022-08-17T07:49:08.598Z,10.40
2022-08-17T07:51:37.237Z,9.10
2022-08-17T07:54:15.623Z,10.57
2022-08-17T07:56:47.088Z,10.43
2022-08-17T07:59:24.061Z,10.95
2022-08-17T08:01:57.529Z,10.38
2022-08-17T08:05:00.210Z,10.70
2022-08-17T08:07:20.789Z,10.63
2022-08-17T08:09:59.958Z,13.25
2022-08-17T08:12:34.979Z,13.60
2022-08-17T08:15:09.388Z,11.73
2022-08-17T08:17:47.441Z,17.58
2022-08-17T08:20:52.496Z,17.48
2022-08-17T08:23:15.426Z,17.90
2022-08-17T08:26:03.126Z,18.65
2022-08-17T08:28:35.694Z,18.20
2022-08-17T08:31:24.383Z,20.20
2022-08-17T08:34:09.074Z,20.48
2022-08-17T08:37:24.999Z,19.33
2022-08-17T08:40:18.986Z,19.40
2022-08-17T08:43:05.854Z,19.08
2022-08-17T08:45:50.929Z,17.33
2022-08-17T08:48:53.899Z,16.92
2022-08-17T08:51:46.101Z,15.43
2022-08-17T08:54:31.334Z,14.20
2022-08-17T09:00:22.502Z,13.18
2022-08-17T09:03:08.395Z,10.88
2022-08-17T09:05:56.153Z,11.35
2022-08-17T09:08:23.259Z,9.15
2022-08-17T09:11:13.471Z,10.70
2022-08-17T09:14:21.281Z,9.95
2022-08-17T09:17:07.824Z,10.43
2022-08-17T09:19:42.033Z,9.70
2022-08-17T09:22:38.429Z,8.48
2022-08-17T09:25:16.591Z,8.10
2022-08-17T09:27:50.587Z,8.40
2022-08-17T09:30:18.486Z,7.75
2022-08-17T09:32:56.107Z,6.47
2022-08-17T09:35:39.450Z,7.93
2022-08-17T09:38:22.424Z,7.88
2022-08-17T09:41:01.600Z,6.70
2022-08-17T09:43:39.027Z,7.07
2022-08-17T09:46:15.896Z,7.32
2022-08-17T09:48:51.600Z,7.93
2022-08-17T09:51:20.663Z,6.72
2022-08-17T09:53:47.291Z,8.50
2022-08-17T09:56:46.974Z,8.30
2022-08-17T09:59:17.119Z,8.32
2022-08-17T10:01:51.608Z,9.13
2022-08-17T10:04:41.348Z,9.52
2022-08-17T10:07:10.783Z,9.20
2022-08-17T10:09:48.648Z,9.98
2022-08-17T10:12:30.874Z,11.38
2022-08-17T10:15:18.964Z,10.15
2022-08-17T10:18:01.125Z,9.85
2022-08-17T10:20:45.658Z,10.90
2022-08-17T10:23:45.013Z,9.23
2022-08-17T10:26:16.822Z,8.93
2022-08-17T10:28:52.675Z,9.70
2022-08-17T10:31:38.778Z,10.80
2022-08-17T10:34:12.375Z,8.93
2022-08-17T10:36:46.217Z,9.52
2022-08-17T10:39:52.106Z,9.25
2022-08-17T10:42:47.039Z,9.48
2022-08-17T10:45:26.070Z,9.38
2022-08-17T10:48:04.816Z,9.38
2022-08-17T10:51:02.059Z,8.70
2022-08-17T10:53:31.137Z,9.00
2022-08-17T10:56:17.400Z,8.68
2022-08-17T10:59:01.133Z,8.07
2022-08-17T11:01:43.414Z,8.07
2022-08-17T11:04:18.676Z,8.88
2022-08-17T11:07:02.043Z,8.50
2022-08-17T11:10:01.054Z,10.10
2022-08-17T11:12:44.215Z,10.43
2022-08-17T11:15:41.423Z,11.45
2022-08-17T11:18:39.860Z,11.98
2022-08-17T11:21:23.058Z,11.90
2022-08-17T11:24:11.631Z,12.77
2022-08-17T11:26:42.153Z,15.20
2022-08-17T11:29:31.050Z,14.67
2022-08-17T11:31:59.475Z,15.18
2022-08-17T11:34:29.957Z,17.55
2022-08-17T11:37:20.711Z,16.98
2022-08-17T11:40:05.779Z,20.30
2022-08-17T11:43:09.917Z,18.95
2022-08-17T11:45:58.125Z,19.42
2022-08-17T11:49:05.000Z,19.45
2022-08-17T11:51:57.023Z,19.08
2022-08-17T11:54:48.177Z,18.58
2022-08-17T11:57:29.708Z,18.55
2022-08-17T12:00:00.713Z,18.88
2022-08-17T12:02:31.668Z,19.38
2022-08-17T12:05:12.313Z,18.30
2022-08-17T12:08:15.921Z,19.77
2022-08-17T12:10:55.996Z,18.98
2022-08-17T12:13:30.574Z,18.92
2022-08-17T12:16:05.492Z,19.35
2022-08-17T12:18:37.327Z,19.25
2022-08-17T12:21:08.499Z,18.77
2022-08-17T12:23:56.776Z,18.33
2022-08-17T12:26:30.184Z,18.90
2022-08-17T12:29:38.432Z,14.98
2022-08-17T12:32:06.940Z,16.65
2022-08-17T12:34:38.162Z,13.75
2022-08-17T12:37:08.097Z,13.20
2022-08-17T12:39:36.684Z,14.07
2022-08-17T12:42:04.616Z,14.10
2022-08-17T12:44:46.141Z,13.55
2022-08-17T12:47:22.690Z,15.30
2022-08-17T12:49:52.593Z,14.30
2022-08-17T12:52:26.768Z,15.00
2022-08-17T12:54:59.599Z,14.77
2022-08-17T12:57:38.282Z,15.10
2022-08-17T13:00:24.733Z,14.80
2022-08-17T13:03:03.261Z,13.93
2022-08-17T13:05:31.344Z,14.27
2022-08-17T13:07:59.810Z,13.43
2022-08-17T13:10:32.872Z,13.20
2022-08-17T13:13:05.196Z,12.15
2022-08-17T13:15:50.776Z,12.85
2022-08-17T13:18:47.239Z,11.07
2022-08-17T13:21:26.578Z,11.27
2022-08-17T13:24:02.732Z,11.27
2022-08-17T13:26:31.228Z,12.38
2022-08-17T13:28:58.590Z,12.48
2022-08-17T13:31:32.912Z,11.65
2022-08-17T13:34:30.624Z,11.80
2022-08-17T13:37:26.277Z,11.27
2022-08-17T13:39:55.410Z,9.77
2022-08-17T13:42:52.886Z,12.68
2022-08-17T13:45:36.514Z,11.40
2022-08-17T13:48:18.782Z,11.90
2022-08-17T13:50:54.157Z,12.10
2022-08-17T13:53:25.485Z,12.38
2022-08-17T13:55:55.388Z,12.60
2022-08-17T13:58:34.181Z,11.68
2022-08-17T14:01:28.614Z,11.30
2022-08-17T14:03:56.187Z,12.48
2022-08-17T14:06:52.478Z,14.57
2022-08-17T14:09:11.290Z,13.57
2022-08-17T14:11:38.261Z,12.68
2022-08-17T14:14:04.897Z,12.77
2022-08-17T14:16:31.335Z,14.18
2022-08-17T14:18:57.800Z,14.68
2022-08-17T14:21:24.282Z,13.98
2022-08-17T14:23:54.810Z,13.45
2022-08-17T14:26:21.563Z,14.15
2022-08-17T14:28:56.600Z,13.80
2022-08-17T14:31:23.650Z,14.10
2022-08-17T14:33:50.039Z,13.73
2022-08-17T14:36:16.430Z,14.93
2022-08-17T14:38:44.938Z,15.52
2022-08-17T14:41:11.582Z,15.45
2022-08-17T14:43:39.581Z,15.88
2022-08-17T14:46:06.111Z,13.75
2022-08-17T14:48:38.476Z,15.10
2022-08-17T14:51:05.293Z,15.35
2022-08-17T14:53:31.733Z,15.88
2022-08-17T14:55:58.111Z,15.52
2022-08-17T14:58:24.639Z,14.45
2022-08-17T15:00:51.308Z,16.45
2022-08-17T15:03:18.719Z,14.68
2022-08-17T15:05:46.746Z,14.90
2022-08-17T15:08:13.296Z,15.40
2022-08-17T15:10:39.728Z,16.77
2022-08-17T15:13:20.438Z,14.80
2022-08-17T15:15:47.983Z,14.80
2022-08-17T15:18:14.823Z,15.55
2022-08-17T15:20:42.851Z,13.73
2022-08-17T15:23:13.091Z,15.73
2022-08-17T15:25:39.585Z,16.00
2022-08-17T15:28:07.306Z,13.57
2022-08-17T15:30:34.722Z,13.43
2022-08-17T15:33:02.025Z,14.13
2022-08-17T15:35:32.882Z,13.32
2022-08-17T15:38:10.690Z,15.45
2022-08-17T15:40:43.008Z,13.18
2022-08-17T15:43:16.917Z,14.57
2022-08-17T15:45:44.553Z,15.85
2022-08-17T15:48:40.541Z,15.05
2022-08-17T15:51:15.896Z,15.13
2022-08-17T15:53:45.301Z,14.10
2022-08-17T15:56:14.074Z,14.25
2022-08-17T15:58:42.382Z,12.57
2022-08-17T16:01:16.772Z,15.75
2022-08-17T16:04:04.358Z,14.77
2022-08-17T16:06:33.372Z,14.15
2022-08-17T16:09:00.348Z,16.67
2022-08-17T16:11:26.796Z,14.90
2022-08-17T16:13:55.063Z,16.50
2022-08-17T16:16:23.558Z,15.40
2022-08-17T16:18:53.584Z,16.52
2022-08-17T16:21:43.096Z,15.35
2022-08-17T16:24:13.388Z,15.68
2022-08-17T16:26:40.609Z,15.25
2022-08-17T16:29:08.221Z,14.35
2022-08-17T16:31:40.079Z,15.55
2022-08-17T16:34:17.945Z,13.73
2022-08-17T16:36:55.636Z,15.80
2022-08-17T16:39:28.683Z,13.85
2022-08-17T16:41:56.232Z,14.35
2022-08-17T16:44:28.831Z,15.18
2022-08-17T16:46:55.901Z,14.50
2022-08-17T16:49:34.453Z,14.00
2022-08-17T16:52:03.921Z,13.57
2022-08-17T16:54:30.396Z,13.57
2022-08-17T16:56:56.875Z,13.25
2022-08-17T16:59:31.029Z,14.30
2022-08-17T17:02:11.237Z,12.30
2022-08-17T17:04:44.031Z,11.90
2022-08-17T17:07:38.708Z,12.02
2022-08-17T17:10:09.803Z,11.05
2022-08-17T17:13:03.840Z,14.02
2022-08-17T17:15:31.418Z,13.03
2022-08-17T17:18:06.179Z,13.40
2022-08-17T17:20:47.548Z,12.50
2022-08-17T17:23:37.707Z,13.85
2022-08-17T17:26:36.775Z,16.40
2022-08-17T17:29:20.096Z,17.17
2022-08-17T17:32:17.290Z,18.40
2022-08-17T17:34:50.541Z,18.17
2022-08-17T17:37:23.208Z,19.02
2022-08-17T17:39:57.540Z,18.77
2022-08-17T17:42:28.838Z,20.00
2022-08-17T17:45:10.690Z,17.98
2022-08-17T17:47:37.363Z,18.52
2022-08-17T17:50:07.312Z,18.98
2022-08-17T17:53:03.962Z,21.17
2022-08-17T17:55:55.209Z,20.20
2022-08-17T17:58:51.680Z,17.67
2022-08-17T18:01:44.714Z,19.33
2022-08-17T18:04:23.685Z,20.08
2022-08-17T18:07:12.181Z,20.27
2022-08-17T18:10:35.796Z,19.80
2022-08-17T18:13:27.313Z,18.33
2022-08-17T18:15:55.882Z,19.95
2022-08-17T18:18:39.527Z,19.83
2022-08-17T18:21:18.740Z,18.50
2022-08-17T18:23:53.020Z,19.13
2022-08-17T18:26:49.449Z,19.42
2022-08-17T18:29:24.739Z,20.38
2022-08-17T18:32:18.554Z,64.00
2022-08-17T18:34:48.536Z,27.85
2022-08-17T18:37:31.628Z,20.88
2022-08-17T18:39:58.057Z,18.92
2022-08-17T18:42:27.456Z,18.20
2022-08-17T18:44:55.452Z,19.70
2022-08-17T18:47:28.565Z,19.33
2022-08-17T18:49:58.262Z,19.40
2022-08-17T18:52:32.956Z,18.65
2022-08-17T18:55:09.125Z,18.58
2022-08-17T18:57:39.559Z,15.70
2022-08-17T19:00:17.590Z,16.25
2022-08-17T19:02:52.101Z,15.88
2022-08-17T19:05:40.259Z,14.23
2022-08-17T19:08:28.505Z,15.40
2022-08-17T19:11:02.502Z,14.93
2022-08-17T19:13:28.970Z,14.55
2022-08-17T19:16:12.259Z,14.90
2022-08-17T19:18:54.230Z,15.02
2022-08-17T19:21:44.981Z,13.07
2022-08-17T19:24:19.788Z,14.18
2022-08-17T19:27:13.485Z,13.38
2022-08-17T19:29:56.617Z,14.13
2022-08-17T19:32:27.001Z,13.68
2022-08-17T19:34:54.964Z,14.05
2022-08-17T19:37:21.530Z,12.98
2022-08-17T19:40:24.447Z,13.20
2022-08-17T19:43:13.235Z,12.77
2022-08-17T19:45:58.255Z,14.63
2022-08-17T19:48:56.189Z,13.48
2022-08-17T19:51:34.459Z,14.52
2022-08-17T19:54:15.012Z,13.80
2022-08-17T19:56:49.480Z,15.82
2022-08-17T19:59:21.833Z,14.52
2022-08-17T20:02:00.958Z,14.82
2022-08-17T20:04:32.511Z,14.75
2022-08-17T20:07:54.334Z,14.95
2022-08-17T20:10:29.748Z,15.18
2022-08-17T20:13:07.519Z,15.15
2022-08-17T20:15:38.154Z,14.23
2022-08-17T20:18:13.592Z,14.00
2022-08-17T20:21:05.395Z,15.95
2022-08-17T20:26:17.117Z,14.88
2022-08-17T20:29:08.651Z,14.05
2022-08-17T20:32:06.026Z,13.57
2022-08-17T20:34:39.515Z,12.27
2022-08-17T20:37:15.105Z,12.13
2022-08-17T20:40:08.007Z,12.40
2022-08-17T20:42:36.330Z,11.77
2022-08-17T20:45:26.192Z,12.55
2022-08-17T20:48:22.184Z,12.90
2022-08-17T20:50:51.356Z,12.18
2022-08-17T20:53:53.288Z,15.02
2022-08-17T20:59:30.630Z,13.82
2022-08-17T21:02:12.399Z,12.02
2022-08-17T21:05:00.103Z,10.25
2022-08-17T21:07:42.747Z,10.90
2022-08-17T21:10:13.814Z,11.75
2022-08-17T21:12:50.032Z,11.18
2022-08-17T21:15:43.474Z,10.10
2022-08-17T21:18:28.362Z,11.73
2022-08-17T21:21:15.463Z,10.48
2022-08-17T21:23:59.851Z,8.95
2022-08-17T21:27:04.453Z,10.10
2022-08-17T21:29:33.982Z,10.48
2022-08-17T21:32:06.549Z,9.98
2022-08-17T21:34:43.958Z,10.07
2022-08-17T21:37:22.392Z,10.73
2022-08-17T21:39:54.659Z,11.52
2022-08-17T21:42:29.520Z,10.98
2022-08-17T21:45:30.545Z,10.52
2022-08-17T21:48:21.533Z,9.98
2022-08-17T21:51:10.441Z,10.68
2022-08-17T21:53:44.630Z,9.63
2022-08-17T21:56:19.862Z,11.50
2022-08-17T21:58:54.450Z,11.35
2022-08-17T22:01:25.832Z,12.35
2022-08-17T22:04:11.866Z,11.75
2022-08-17T22:06:52.389Z,11.25
2022-08-17T22:09:35.132Z,11.20
2022-08-17T22:12:13.481Z,11.43
2022-08-17T22:14:53.425Z,10.43
2022-08-17T22:17:34.295Z,9.60
2022-08-17T22:20:11.997Z,11.20
2022-08-17T22:23:17.011Z,10.75
2022-08-17T22:26:06.072Z,9.65
2022-08-17T22:28:45.465Z,9.38
2022-08-17T22:31:15.461Z,11.20
2022-08-17T22:33:44.468Z,10.30
2022-08-17T22:36:25.002Z,10.35
2022-08-17T22:39:10.652Z,10.20
2022-08-17T22:41:37.063Z,9.77
2022-08-17T22:44:27.822Z,10.60
2022-08-17T22:47:13.305Z,9.85
2022-08-17T22:49:53.153Z,10.00
2022-08-17T22:52:32.713Z,10.73
2022-08-17T22:55:33.297Z,9.57
2022-08-17T22:58:19.160Z,10.40
2022-08-17T23:00:49.070Z,9.75
2022-08-17T23:03:25.207Z,9.68
2022-08-17T23:06:08.008Z,10.05
2022-08-17T23:08:43.501Z,11.32
2022-08-17T23:11:09.971Z,9.93
2022-08-17T23:13:38.576Z,9.77
2022-08-17T23:16:06.842Z,9.38
2022-08-17T23:18:33.516Z,10.73
2022-08-17T23:21:00.075Z,9.65
2022-08-17T23:23:26.536Z,11.07
2022-08-17T23:25:54.339Z,9.15
2022-08-17T23:28:21.405Z,9.52
2022-08-17T23:30:48.455Z,8.82
2022-08-17T23:33:30.074Z,8.90
2022-08-17T23:35:58.812Z,8.60
2022-08-17T23:38:27.064Z,9.43
2022-08-17T23:40:54.535Z,8.82
2022-08-17T23:43:23.894Z,9.02
2022-08-17T23:45:53.881Z,9.63
2022-08-17T23:48:36.314Z,9.95
2022-08-17T23:51:09.820Z,9.40
2022-08-17T23:53:40.186Z,8.82
2022-08-17T23:56:10.410Z,9.05
2022-08-17T23:58:38.956Z,9.57
